sensor_id;sensor_type;location;lat;lon;timestamp;temperature;humidity
59098;DHT22;44883;52.760;6.610;2022-10-17T00:00:14;13.40;99.90
59098;DHT22;44883;52.760;6.610;2022-10-17T00:02:39;13.40;99.90
59098;DHT22;44883;52.760;6.610;2022-10-17T00:05:05;13.40;99.90
59098;DHT22;44883;52.760;6.610;2022-10-17T00:07:30;13.40;99.90
59098;DHT22;44883;52.760;6.610;2022-10-17T00:09:56;13.30;99.90
59098;DHT22;44883;52.760;6.610;2022-10-17T00:12:21;13.30;99.90
59098;DHT22;44883;52.760;6.610;2022-10-17T00:14:47;13.30;99.90
59098;DHT22;44883;52.760;6.610;2022-10-17T00:17:12;13.30;99.90
59098;DHT22;44883;52.760;6.610;2022-10-17T00:19:39;13.30;99.90
59098;DHT22;44883;52.760;6.610;2022-10-17T00:22:04;13.30;99.90
59098;DHT22;44883;52.760;6.610;2022-10-17T00:24:30;13.30;99.90
59098;DHT22;44883;52.760;6.610;2022-10-17T00:26:56;13.30;99.90
59098;DHT22;44883;52.760;6.610;2022-10-17T00:29:21;13.20;99.90
59098;DHT22;44883;52.760;6.610;2022-10-17T00:31:47;13.20;99.90
59098;DHT22;44883;52.760;6.610;2022-10-17T00:34:12;13.20;99.90
59098;DHT22;44883;52.760;6.610;2022-10-17T00:36:38;13.20;99.90
59098;DHT22;44883;52.760;6.610;2022-10-17T00:39:04;13.20;99.90
59098;DHT22;44883;52.760;6.610;2022-10-17T00:41:31;13.20;99.90
59098;DHT22;44883;52.760;6.610;2022-10-17T00:43:58;13.20;99.90
59098;DHT22;44883;52.760;6.610;2022-10-17T00:46:28;13.30;99.90
59098;DHT22;44883;52.760;6.610;2022-10-17T00:48:54;13.30;99.90
59098;DHT22;44883;52.760;6.610;2022-10-17T00:51:23;13.30;99.90
59098;DHT22;44883;52.760;6.610;2022-10-17T00:53:49;13.30;99.90
59098;DHT22;44883;52.760;6.610;2022-10-17T00:56:17;13.30;99.90
59098;DHT22;44883;52.760;6.610;2022-10-17T00:58:43;13.40;99.90
59098;DHT22;44883;52.760;6.610;2022-10-17T01:01:08;13.30;99.90
59098;DHT22;44883;52.760;6.610;2022-10-17T01:03:34;13.40;99.90
59098;DHT22;44883;52.760;6.610;2022-10-17T01:05:59;13.40;99.90
59098;DHT22;44883;52.760;6.610;2022-10-17T01:08:25;13.30;99.90
59098;DHT22;44883;52.760;6.610;2022-10-17T01:13:19;13.40;99.90
59098;DHT22;44883;52.760;6.610;2022-10-17T01:26:24;13.30;99.90
59098;DHT22;44883;52.760;6.610;2022-10-17T01:31:22;13.30;99.90
59098;DHT22;44883;52.760;6.610;2022-10-17T01:33:56;13.20;99.90
59098;DHT22;44883;52.760;6.610;2022-10-17T01:38:57;13.20;99.90
59098;DHT22;44883;52.760;6.610;2022-10-17T01:44:02;13.10;99.90
59098;DHT22;44883;52.760;6.610;2022-10-17T01:46:31;13.10;99.90
59098;DHT22;44883;52.760;6.610;2022-10-17T01:48:59;13.00;99.90
59098;DHT22;44883;52.760;6.610;2022-10-17T01:51:26;13.00;99.90
59098;DHT22;44883;52.760;6.610;2022-10-17T01:53:55;13.10;99.90
59098;DHT22;44883;52.760;6.610;2022-10-17T01:56:24;13.10;99.90
59098;DHT22;44883;52.760;6.610;2022-10-17T01:58:52;13.00;99.90
59098;DHT22;44883;52.760;6.610;2022-10-17T02:01:18;13.00;99.90
59098;DHT22;44883;52.760;6.610;2022-10-17T02:03:45;13.10;99.90
59098;DHT22;44883;52.760;6.610;2022-10-17T02:06:11;13.00;99.90
59098;DHT22;44883;52.760;6.610;2022-10-17T02:08:47;13.00;99.90
59098;DHT22;44883;52.760;6.610;2022-10-17T02:11:14;13.00;99.90
59098;DHT22;44883;52.760;6.610;2022-10-17T02:21:30;13.00;99.90
59098;DHT22;44883;52.760;6.610;2022-10-17T02:24:06;12.90;99.90
59098;DHT22;44883;52.760;6.610;2022-10-17T02:26:39;12.90;99.90
59098;DHT22;44883;52.760;6.610;2022-10-17T02:29:06;12.90;99.90
59098;DHT22;44883;52.760;6.610;2022-10-17T02:31:36;12.90;99.90
59098;DHT22;44883;52.760;6.610;2022-10-17T02:34:07;12.90;99.90
59098;DHT22;44883;52.760;6.610;2022-10-17T02:36:34;12.80;99.90
59098;DHT22;44883;52.760;6.610;2022-10-17T02:39:01;12.80;99.90
59098;DHT22;44883;52.760;6.610;2022-10-17T02:41:27;12.80;99.90
59098;DHT22;44883;52.760;6.610;2022-10-17T02:43:54;12.80;99.90
59098;DHT22;44883;52.760;6.610;2022-10-17T02:46:20;12.90;99.90
59098;DHT22;44883;52.760;6.610;2022-10-17T02:48:58;12.90;99.90
59098;DHT22;44883;52.760;6.610;2022-10-17T02:56:18;12.90;99.90
59098;DHT22;44883;52.760;6.610;2022-10-17T02:58:52;12.90;99.90
59098;DHT22;44883;52.760;6.610;2022-10-17T03:01:18;12.90;99.90
59098;DHT22;44883;52.760;6.610;2022-10-17T03:03:44;12.90;99.90
59098;DHT22;44883;52.760;6.610;2022-10-17T03:06:10;12.90;99.90
59098;DHT22;44883;52.760;6.610;2022-10-17T03:08:35;12.90;99.90
59098;DHT22;44883;52.760;6.610;2022-10-17T03:11:01;12.90;99.90
59098;DHT22;44883;52.760;6.610;2022-10-17T03:13:27;12.90;99.90
59098;DHT22;44883;52.760;6.610;2022-10-17T03:15:53;12.90;99.90
59098;DHT22;44883;52.760;6.610;2022-10-17T03:18:19;12.90;99.90
59098;DHT22;44883;52.760;6.610;2022-10-17T03:20:45;12.90;99.90
59098;DHT22;44883;52.760;6.610;2022-10-17T03:23:10;12.80;99.90
59098;DHT22;44883;52.760;6.610;2022-10-17T03:25:36;12.90;99.90
59098;DHT22;44883;52.760;6.610;2022-10-17T03:28:01;12.90;99.90
59098;DHT22;44883;52.760;6.610;2022-10-17T03:30:27;12.80;99.90
59098;DHT22;44883;52.760;6.610;2022-10-17T03:32:53;12.80;99.90
59098;DHT22;44883;52.760;6.610;2022-10-17T03:35:18;12.80;99.90
59098;DHT22;44883;52.760;6.610;2022-10-17T03:37:44;12.80;99.90
59098;DHT22;44883;52.760;6.610;2022-10-17T03:40:09;12.80;99.90
59098;DHT22;44883;52.760;6.610;2022-10-17T03:42:35;12.90;99.90
59098;DHT22;44883;52.760;6.610;2022-10-17T03:45:01;12.80;99.90
59098;DHT22;44883;52.760;6.610;2022-10-17T03:47:27;12.80;99.90
59098;DHT22;44883;52.760;6.610;2022-10-17T03:49:52;12.80;99.90
59098;DHT22;44883;52.760;6.610;2022-10-17T03:52:18;12.80;99.90
59098;DHT22;44883;52.760;6.610;2022-10-17T03:54:44;12.80;99.90
59098;DHT22;44883;52.760;6.610;2022-10-17T03:57:09;12.80;99.90
59098;DHT22;44883;52.760;6.610;2022-10-17T03:59:35;12.80;99.90
59098;DHT22;44883;52.760;6.610;2022-10-17T04:02:00;12.80;99.90
59098;DHT22;44883;52.760;6.610;2022-10-17T04:04:26;12.80;99.90
59098;DHT22;44883;52.760;6.610;2022-10-17T04:06:51;12.80;99.90
59098;DHT22;44883;52.760;6.610;2022-10-17T04:09:17;12.80;99.90
59098;DHT22;44883;52.760;6.610;2022-10-17T04:11:42;12.80;99.90
59098;DHT22;44883;52.760;6.610;2022-10-17T04:14:08;12.90;99.90
59098;DHT22;44883;52.760;6.610;2022-10-17T04:16:33;12.90;99.90
59098;DHT22;44883;52.760;6.610;2022-10-17T04:18:59;12.90;99.90
59098;DHT22;44883;52.760;6.610;2022-10-17T04:21:25;12.90;99.90
59098;DHT22;44883;52.760;6.610;2022-10-17T04:23:51;12.90;99.90
59098;DHT22;44883;52.760;6.610;2022-10-17T04:26:17;12.90;99.90
59098;DHT22;44883;52.760;6.610;2022-10-17T04:28:42;12.90;99.90
59098;DHT22;44883;52.760;6.610;2022-10-17T04:31:09;12.90;99.90
59098;DHT22;44883;52.760;6.610;2022-10-17T04:33:36;12.90;99.90
59098;DHT22;44883;52.760;6.610;2022-10-17T04:36:02;13.00;99.90
59098;DHT22;44883;52.760;6.610;2022-10-17T04:38:28;12.90;99.90
59098;DHT22;44883;52.760;6.610;2022-10-17T04:40:55;13.00;99.90
59098;DHT22;44883;52.760;6.610;2022-10-17T04:43:21;13.00;99.90
59098;DHT22;44883;52.760;6.610;2022-10-17T04:45:46;13.10;99.90
59098;DHT22;44883;52.760;6.610;2022-10-17T04:48:12;13.10;99.90
59098;DHT22;44883;52.760;6.610;2022-10-17T04:50:37;13.00;99.90
59098;DHT22;44883;52.760;6.610;2022-10-17T04:53:03;13.10;99.90
59098;DHT22;44883;52.760;6.610;2022-10-17T04:55:28;13.00;99.90
59098;DHT22;44883;52.760;6.610;2022-10-17T04:57:54;13.10;99.90
59098;DHT22;44883;52.760;6.610;2022-10-17T05:00:19;13.10;99.90
59098;DHT22;44883;52.760;6.610;2022-10-17T05:02:45;13.10;99.90
59098;DHT22;44883;52.760;6.610;2022-10-17T05:05:10;13.00;99.90
59098;DHT22;44883;52.760;6.610;2022-10-17T05:07:39;13.00;99.90
59098;DHT22;44883;52.760;6.610;2022-10-17T05:10:05;13.00;99.90
59098;DHT22;44883;52.760;6.610;2022-10-17T05:12:31;13.00;99.90
59098;DHT22;44883;52.760;6.610;2022-10-17T05:14:56;13.00;99.90
59098;DHT22;44883;52.760;6.610;2022-10-17T05:17:22;13.10;99.90
59098;DHT22;44883;52.760;6.610;2022-10-17T05:19:47;13.00;99.90
59098;DHT22;44883;52.760;6.610;2022-10-17T05:22:13;13.00;99.90
59098;DHT22;44883;52.760;6.610;2022-10-17T05:24:38;13.00;99.90
59098;DHT22;44883;52.760;6.610;2022-10-17T05:27:04;13.00;99.90
59098;DHT22;44883;52.760;6.610;2022-10-17T05:29:29;13.10;99.90
59098;DHT22;44883;52.760;6.610;2022-10-17T05:31:55;13.00;99.90
59098;DHT22;44883;52.760;6.610;2022-10-17T05:34:20;13.00;99.90
59098;DHT22;44883;52.760;6.610;2022-10-17T05:36:46;13.10;99.90
59098;DHT22;44883;52.760;6.610;2022-10-17T05:39:12;13.10;99.90
59098;DHT22;44883;52.760;6.610;2022-10-17T05:41:39;13.10;99.90
59098;DHT22;44883;52.760;6.610;2022-10-17T05:44:04;13.10;99.90
59098;DHT22;44883;52.760;6.610;2022-10-17T05:46:30;13.20;99.90
59098;DHT22;44883;52.760;6.610;2022-10-17T05:48:55;13.20;99.90
59098;DHT22;44883;52.760;6.610;2022-10-17T05:51:21;13.30;99.90
59098;DHT22;44883;52.760;6.610;2022-10-17T05:53:46;13.30;99.90
59098;DHT22;44883;52.760;6.610;2022-10-17T05:56:12;13.50;99.90
59098;DHT22;44883;52.760;6.610;2022-10-17T05:58:39;13.50;99.90
59098;DHT22;44883;52.760;6.610;2022-10-17T06:01:05;13.60;99.90
59098;DHT22;44883;52.760;6.610;2022-10-17T06:03:31;13.60;99.90
59098;DHT22;44883;52.760;6.610;2022-10-17T06:06:01;13.70;99.90
59098;DHT22;44883;52.760;6.610;2022-10-17T06:08:30;13.70;99.90
59098;DHT22;44883;52.760;6.610;2022-10-17T06:10:56;13.80;99.90
59098;DHT22;44883;52.760;6.610;2022-10-17T06:13:21;13.90;99.90
59098;DHT22;44883;52.760;6.610;2022-10-17T06:15:47;13.90;99.90
59098;DHT22;44883;52.760;6.610;2022-10-17T06:18:12;13.90;99.90
59098;DHT22;44883;52.760;6.610;2022-10-17T06:20:38;14.00;99.90
59098;DHT22;44883;52.760;6.610;2022-10-17T06:23:03;14.10;99.90
59098;DHT22;44883;52.760;6.610;2022-10-17T06:25:30;14.10;99.90
59098;DHT22;44883;52.760;6.610;2022-10-17T06:27:55;14.10;99.90
59098;DHT22;44883;52.760;6.610;2022-10-17T06:30:21;14.10;99.90
59098;DHT22;44883;52.760;6.610;2022-10-17T06:32:47;14.20;99.90
59098;DHT22;44883;52.760;6.610;2022-10-17T06:35:12;14.30;99.90
59098;DHT22;44883;52.760;6.610;2022-10-17T06:37:38;14.40;99.90
59098;DHT22;44883;52.760;6.610;2022-10-17T06:40:04;14.40;99.90
59098;DHT22;44883;52.760;6.610;2022-10-17T06:42:30;14.40;99.90
59098;DHT22;44883;52.760;6.610;2022-10-17T06:44:55;14.40;99.90
59098;DHT22;44883;52.760;6.610;2022-10-17T06:47:21;14.40;99.90
59098;DHT22;44883;52.760;6.610;2022-10-17T06:49:46;14.40;99.90
59098;DHT22;44883;52.760;6.610;2022-10-17T06:52:12;14.50;99.90
59098;DHT22;44883;52.760;6.610;2022-10-17T06:54:37;14.50;99.90
59098;DHT22;44883;52.760;6.610;2022-10-17T06:57:03;14.60;99.90
59098;DHT22;44883;52.760;6.610;2022-10-17T06:59:28;14.70;99.90
59098;DHT22;44883;52.760;6.610;2022-10-17T07:01:54;14.80;99.90
59098;DHT22;44883;52.760;6.610;2022-10-17T07:04:19;14.90;99.90
59098;DHT22;44883;52.760;6.610;2022-10-17T07:06:45;15.10;99.90
59098;DHT22;44883;52.760;6.610;2022-10-17T07:09:10;15.50;99.90
59098;DHT22;44883;52.760;6.610;2022-10-17T07:11:35;15.70;99.90
59098;DHT22;44883;52.760;6.610;2022-10-17T07:14:01;15.80;99.90
59098;DHT22;44883;52.760;6.610;2022-10-17T07:16:27;15.90;99.90
59098;DHT22;44883;52.760;6.610;2022-10-17T07:18:52;16.20;99.90
59098;DHT22;44883;52.760;6.610;2022-10-17T07:21:18;16.40;99.90
59098;DHT22;44883;52.760;6.610;2022-10-17T07:23:44;16.80;99.90
59098;DHT22;44883;52.760;6.610;2022-10-17T07:26:10;17.60;99.90
59098;DHT22;44883;52.760;6.610;2022-10-17T07:28:37;18.20;99.90
59098;DHT22;44883;52.760;6.610;2022-10-17T07:31:08;18.30;99.90
59098;DHT22;44883;52.760;6.610;2022-10-17T07:33:34;18.30;99.90
59098;DHT22;44883;52.760;6.610;2022-10-17T07:36:00;18.40;99.90
59098;DHT22;44883;52.760;6.610;2022-10-17T07:38:29;18.40;99.90
59098;DHT22;44883;52.760;6.610;2022-10-17T07:40:55;18.70;99.90
59098;DHT22;44883;52.760;6.610;2022-10-17T07:43:21;19.10;99.90
59098;DHT22;44883;52.760;6.610;2022-10-17T07:45:46;19.50;99.90
59098;DHT22;44883;52.760;6.610;2022-10-17T07:48:11;19.90;99.90
59098;DHT22;44883;52.760;6.610;2022-10-17T07:50:38;19.80;99.90
59098;DHT22;44883;52.760;6.610;2022-10-17T07:53:03;19.30;99.90
59098;DHT22;44883;52.760;6.610;2022-10-17T07:55:29;18.80;99.90
59098;DHT22;44883;52.760;6.610;2022-10-17T07:57:54;18.40;99.90
59098;DHT22;44883;52.760;6.610;2022-10-17T08:00:21;18.00;99.90
59098;DHT22;44883;52.760;6.610;2022-10-17T08:02:46;17.70;99.90
59098;DHT22;44883;52.760;6.610;2022-10-17T08:05:12;17.40;99.90
59098;DHT22;44883;52.760;6.610;2022-10-17T08:07:38;17.20;99.90
59098;DHT22;44883;52.760;6.610;2022-10-17T08:10:04;17.10;99.90
59098;DHT22;44883;52.760;6.610;2022-10-17T08:12:30;16.90;99.90
59098;DHT22;44883;52.760;6.610;2022-10-17T08:15:01;16.80;99.90
59098;DHT22;44883;52.760;6.610;2022-10-17T08:17:27;16.70;99.90
59098;DHT22;44883;52.760;6.610;2022-10-17T08:19:53;16.70;99.90
59098;DHT22;44883;52.760;6.610;2022-10-17T08:22:18;16.60;99.90
59098;DHT22;44883;52.760;6.610;2022-10-17T08:24:43;16.50;99.90
59098;DHT22;44883;52.760;6.610;2022-10-17T08:27:10;16.50;99.90
59098;DHT22;44883;52.760;6.610;2022-10-17T08:29:40;16.40;99.90
59098;DHT22;44883;52.760;6.610;2022-10-17T08:32:06;16.40;99.90
59098;DHT22;44883;52.760;6.610;2022-10-17T08:34:33;16.40;99.90
59098;DHT22;44883;52.760;6.610;2022-10-17T08:36:59;16.30;99.90
59098;DHT22;44883;52.760;6.610;2022-10-17T08:39:24;16.30;99.90
59098;DHT22;44883;52.760;6.610;2022-10-17T08:44:21;16.30;99.90
59098;DHT22;44883;52.760;6.610;2022-10-17T08:46:50;16.30;99.90
59098;DHT22;44883;52.760;6.610;2022-10-17T08:49:25;16.30;99.90
59098;DHT22;44883;52.760;6.610;2022-10-17T08:51:53;16.30;99.90
59098;DHT22;44883;52.760;6.610;2022-10-17T08:54:25;16.40;99.90
59098;DHT22;44883;52.760;6.610;2022-10-17T08:56:55;16.40;99.90
59098;DHT22;44883;52.760;6.610;2022-10-17T08:59:22;16.50;99.90
59098;DHT22;44883;52.760;6.610;2022-10-17T09:07:12;16.50;99.90
59098;DHT22;44883;52.760;6.610;2022-10-17T09:20:52;16.40;99.90
59098;DHT22;44883;52.760;6.610;2022-10-17T09:23:00;16.40;99.90
59098;DHT22;44883;52.760;6.610;2022-10-17T09:25:26;16.50;99.90
59098;DHT22;44883;52.760;6.610;2022-10-17T09:27:54;16.60;99.90
59098;DHT22;44883;52.760;6.610;2022-10-17T09:30:38;16.60;99.90
59098;DHT22;44883;52.760;6.610;2022-10-17T09:33:11;16.60;99.90
59098;DHT22;44883;52.760;6.610;2022-10-17T09:35:37;16.60;99.90
59098;DHT22;44883;52.760;6.610;2022-10-17T09:38:03;16.60;99.90
59098;DHT22;44883;52.760;6.610;2022-10-17T09:40:33;16.60;99.90
59098;DHT22;44883;52.760;6.610;2022-10-17T09:43:00;16.60;99.90
59098;DHT22;44883;52.760;6.610;2022-10-17T09:45:26;16.50;99.90
59098;DHT22;44883;52.760;6.610;2022-10-17T09:47:56;16.50;99.90
59098;DHT22;44883;52.760;6.610;2022-10-17T09:50:25;16.50;99.90
59098;DHT22;44883;52.760;6.610;2022-10-17T09:52:51;16.50;99.90
59098;DHT22;44883;52.760;6.610;2022-10-17T09:58:02;16.50;99.90
59098;DHT22;44883;52.760;6.610;2022-10-17T10:00:30;16.40;99.90
59098;DHT22;44883;52.760;6.610;2022-10-17T10:05:33;16.40;99.90
59098;DHT22;44883;52.760;6.610;2022-10-17T10:08:20;16.40;99.90
59098;DHT22;44883;52.760;6.610;2022-10-17T10:10:44;16.40;99.90
59098;DHT22;44883;52.760;6.610;2022-10-17T10:15:39;16.30;99.90
59098;DHT22;44883;52.760;6.610;2022-10-17T10:21:06;16.30;99.90
59098;DHT22;44883;52.760;6.610;2022-10-17T10:23:32;16.40;99.90
59098;DHT22;44883;52.760;6.610;2022-10-17T10:26:02;16.30;99.90
59098;DHT22;44883;52.760;6.610;2022-10-17T10:28:32;16.20;99.90
59098;DHT22;44883;52.760;6.610;2022-10-17T10:30:59;16.30;99.90
59098;DHT22;44883;52.760;6.610;2022-10-17T10:33:27;16.20;99.90
59098;DHT22;44883;52.760;6.610;2022-10-17T10:35:54;16.20;99.90
59098;DHT22;44883;52.760;6.610;2022-10-17T10:38:20;16.20;99.90
59098;DHT22;44883;52.760;6.610;2022-10-17T10:40:56;16.20;99.90
59098;DHT22;44883;52.760;6.610;2022-10-17T10:43:32;16.10;99.90
59098;DHT22;44883;52.760;6.610;2022-10-17T10:45:59;16.20;99.90
59098;DHT22;44883;52.760;6.610;2022-10-17T10:48:33;16.20;99.90
59098;DHT22;44883;52.760;6.610;2022-10-17T10:51:00;16.10;99.90
59098;DHT22;44883;52.760;6.610;2022-10-17T10:53:28;16.20;99.90
59098;DHT22;44883;52.760;6.610;2022-10-17T10:56:15;16.20;99.90
59098;DHT22;44883;52.760;6.610;2022-10-17T11:01:22;16.20;99.90
59098;DHT22;44883;52.760;6.610;2022-10-17T11:06:28;16.30;99.90
59098;DHT22;44883;52.760;6.610;2022-10-17T11:11:25;16.20;99.90
59098;DHT22;44883;52.760;6.610;2022-10-17T11:14:07;16.20;99.90
59098;DHT22;44883;52.760;6.610;2022-10-17T11:16:36;16.30;99.90
59098;DHT22;44883;52.760;6.610;2022-10-17T11:21:33;16.30;99.90
59098;DHT22;44883;52.760;6.610;2022-10-17T11:26:48;16.30;99.90
59098;DHT22;44883;52.760;6.610;2022-10-17T11:29:14;16.30;99.90
59098;DHT22;44883;52.760;6.610;2022-10-17T11:31:47;16.30;99.90
59098;DHT22;44883;52.760;6.610;2022-10-17T11:34:24;16.30;99.90
59098;DHT22;44883;52.760;6.610;2022-10-17T11:36:51;16.40;99.90
59098;DHT22;44883;52.760;6.610;2022-10-17T11:39:18;16.40;99.90
59098;DHT22;44883;52.760;6.610;2022-10-17T11:41:49;16.30;99.90
59098;DHT22;44883;52.760;6.610;2022-10-17T11:44:21;16.40;99.90
59098;DHT22;44883;52.760;6.610;2022-10-17T11:46:50;16.40;99.90
59098;DHT22;44883;52.760;6.610;2022-10-17T11:49:19;16.40;99.90
59098;DHT22;44883;52.760;6.610;2022-10-17T11:51:48;16.30;99.90
59098;DHT22;44883;52.760;6.610;2022-10-17T11:54:24;16.30;99.90
59098;DHT22;44883;52.760;6.610;2022-10-17T11:57:06;16.40;99.90
59098;DHT22;44883;52.760;6.610;2022-10-17T12:02:47;16.40;99.90
59098;DHT22;44883;52.760;6.610;2022-10-17T12:05:24;16.40;99.90
59098;DHT22;44883;52.760;6.610;2022-10-17T12:07:57;16.40;99.90
59098;DHT22;44883;52.760;6.610;2022-10-17T12:10:36;16.40;99.90
59098;DHT22;44883;52.760;6.610;2022-10-17T12:18:44;16.70;99.90
59098;DHT22;44883;52.760;6.610;2022-10-17T12:21:10;16.80;99.90
59098;DHT22;44883;52.760;6.610;2022-10-17T12:23:35;16.80;99.90
59098;DHT22;44883;52.760;6.610;2022-10-17T12:26:07;16.80;99.90
59098;DHT22;44883;52.760;6.610;2022-10-17T12:33:37;16.80;99.90
59098;DHT22;44883;52.760;6.610;2022-10-17T12:44:50;16.90;99.90
59098;DHT22;44883;52.760;6.610;2022-10-17T12:54:36;17.10;99.90
59098;DHT22;44883;52.760;6.610;2022-10-17T12:57:06;17.10;99.90
59098;DHT22;44883;52.760;6.610;2022-10-17T12:59:37;17.10;99.90
59098;DHT22;44883;52.760;6.610;2022-10-17T13:02:03;17.10;99.90
59098;DHT22;44883;52.760;6.610;2022-10-17T13:04:28;17.10;99.90
59098;DHT22;44883;52.760;6.610;2022-10-17T13:06:56;17.10;99.90
59098;DHT22;44883;52.760;6.610;2022-10-17T13:11:48;17.00;99.90
59098;DHT22;44883;52.760;6.610;2022-10-17T13:14:14;17.00;99.90
59098;DHT22;44883;52.760;6.610;2022-10-17T13:16:57;16.90;99.90
59098;DHT22;44883;52.760;6.610;2022-10-17T13:19:24;16.90;99.90
59098;DHT22;44883;52.760;6.610;2022-10-17T13:21:56;16.90;99.90
59098;DHT22;44883;52.760;6.610;2022-10-17T13:26:54;16.80;99.90
59098;DHT22;44883;52.760;6.610;2022-10-17T13:29:20;16.80;99.90
59098;DHT22;44883;52.760;6.610;2022-10-17T13:31:54;16.70;99.90
59098;DHT22;44883;52.760;6.610;2022-10-17T13:34:21;16.70;99.90
59098;DHT22;44883;52.760;6.610;2022-10-17T13:36:49;16.80;99.90
59098;DHT22;44883;52.760;6.610;2022-10-17T13:39:16;16.80;99.90
59098;DHT22;44883;52.760;6.610;2022-10-17T13:41:42;16.70;99.90
59098;DHT22;44883;52.760;6.610;2022-10-17T13:44:14;16.70;99.90
59098;DHT22;44883;52.760;6.610;2022-10-17T13:46:40;16.60;99.90
59098;DHT22;44883;52.760;6.610;2022-10-17T13:49:08;16.60;99.90
59098;DHT22;44883;52.760;6.610;2022-10-17T13:51:34;16.50;99.90
59098;DHT22;44883;52.760;6.610;2022-10-17T13:53:59;16.50;99.90
59098;DHT22;44883;52.760;6.610;2022-10-17T13:56:26;16.50;99.90
59098;DHT22;44883;52.760;6.610;2022-10-17T13:58:53;16.50;99.90
59098;DHT22;44883;52.760;6.610;2022-10-17T14:01:22;16.50;99.90
59098;DHT22;44883;52.760;6.610;2022-10-17T14:03:47;16.40;99.90
59098;DHT22;44883;52.760;6.610;2022-10-17T14:06:17;16.40;99.90
59098;DHT22;44883;52.760;6.610;2022-10-17T14:11:13;16.20;99.90
59098;DHT22;44883;52.760;6.610;2022-10-17T14:13:38;16.20;99.90
59098;DHT22;44883;52.760;6.610;2022-10-17T14:16:05;16.10;99.90
59098;DHT22;44883;52.760;6.610;2022-10-17T14:18:33;16.10;99.90
59098;DHT22;44883;52.760;6.610;2022-10-17T14:20:59;16.10;99.90
59098;DHT22;44883;52.760;6.610;2022-10-17T14:23:30;16.00;99.90
59098;DHT22;44883;52.760;6.610;2022-10-17T14:26:06;16.00;99.90
59098;DHT22;44883;52.760;6.610;2022-10-17T14:28:32;16.00;99.90
59098;DHT22;44883;52.760;6.610;2022-10-17T14:31:09;15.90;99.90
59098;DHT22;44883;52.760;6.610;2022-10-17T14:33:35;16.00;99.90
59098;DHT22;44883;52.760;6.610;2022-10-17T14:36:01;15.90;99.90
59098;DHT22;44883;52.760;6.610;2022-10-17T14:38:28;15.90;99.90
59098;DHT22;44883;52.760;6.610;2022-10-17T14:40:58;15.90;99.90
59098;DHT22;44883;52.760;6.610;2022-10-17T14:43:25;15.90;99.90
59098;DHT22;44883;52.760;6.610;2022-10-17T14:45:52;15.80;99.90
59098;DHT22;44883;52.760;6.610;2022-10-17T14:48:21;15.80;99.90
59098;DHT22;44883;52.760;6.610;2022-10-17T14:53:33;15.80;99.90
59098;DHT22;44883;52.760;6.610;2022-10-17T14:55:59;15.90;99.90
59098;DHT22;44883;52.760;6.610;2022-10-17T14:58:26;15.80;99.90
59098;DHT22;44883;52.760;6.610;2022-10-17T15:00:55;15.80;99.90
59098;DHT22;44883;52.760;6.610;2022-10-17T15:03:21;15.80;99.90
59098;DHT22;44883;52.760;6.610;2022-10-17T15:05:47;15.80;99.90
59098;DHT22;44883;52.760;6.610;2022-10-17T15:08:13;15.90;99.90
59098;DHT22;44883;52.760;6.610;2022-10-17T15:10:39;15.80;99.90
59098;DHT22;44883;52.760;6.610;2022-10-17T15:13:08;15.90;99.90
59098;DHT22;44883;52.760;6.610;2022-10-17T15:15:34;15.90;99.90
59098;DHT22;44883;52.760;6.610;2022-10-17T15:18:00;15.90;99.90
59098;DHT22;44883;52.760;6.610;2022-10-17T15:20:26;15.90;99.90
59098;DHT22;44883;52.760;6.610;2022-10-17T15:22:54;15.90;99.90
59098;DHT22;44883;52.760;6.610;2022-10-17T15:25:20;15.90;99.90
59098;DHT22;44883;52.760;6.610;2022-10-17T15:27:46;15.90;99.90
59098;DHT22;44883;52.760;6.610;2022-10-17T15:30:33;15.90;99.90
59098;DHT22;44883;52.760;6.610;2022-10-17T15:32:57;15.90;99.90
59098;DHT22;44883;52.760;6.610;2022-10-17T15:35:23;15.80;99.90
59098;DHT22;44883;52.760;6.610;2022-10-17T15:37:49;15.90;99.90
59098;DHT22;44883;52.760;6.610;2022-10-17T15:40:19;15.90;99.90
59098;DHT22;44883;52.760;6.610;2022-10-17T15:42:45;15.80;99.90
59098;DHT22;44883;52.760;6.610;2022-10-17T15:45:11;15.80;99.90
59098;DHT22;44883;52.760;6.610;2022-10-17T15:47:36;15.80;99.90
59098;DHT22;44883;52.760;6.610;2022-10-17T15:50:02;15.80;99.90
59098;DHT22;44883;52.760;6.610;2022-10-17T15:52:29;15.80;99.90
59098;DHT22;44883;52.760;6.610;2022-10-17T15:54:54;15.70;99.90
59098;DHT22;44883;52.760;6.610;2022-10-17T15:57:21;15.70;99.90
59098;DHT22;44883;52.760;6.610;2022-10-17T15:59:47;15.60;99.90
59098;DHT22;44883;52.760;6.610;2022-10-17T16:02:13;15.60;99.90
59098;DHT22;44883;52.760;6.610;2022-10-17T16:04:39;15.60;99.90
59098;DHT22;44883;52.760;6.610;2022-10-17T16:07:05;15.50;99.90
59098;DHT22;44883;52.760;6.610;2022-10-17T16:09:31;15.50;99.90
59098;DHT22;44883;52.760;6.610;2022-10-17T16:11:58;15.40;99.90
59098;DHT22;44883;52.760;6.610;2022-10-17T16:14:24;15.40;99.90
59098;DHT22;44883;52.760;6.610;2022-10-17T16:16:50;15.40;99.90
59098;DHT22;44883;52.760;6.610;2022-10-17T16:19:15;15.40;99.90
59098;DHT22;44883;52.760;6.610;2022-10-17T16:21:41;15.40;99.90
59098;DHT22;44883;52.760;6.610;2022-10-17T16:24:10;15.30;99.90
59098;DHT22;44883;52.760;6.610;2022-10-17T16:26:36;15.30;99.90
59098;DHT22;44883;52.760;6.610;2022-10-17T16:29:02;15.30;99.90
59098;DHT22;44883;52.760;6.610;2022-10-17T16:31:29;15.20;99.90
59098;DHT22;44883;52.760;6.610;2022-10-17T16:33:56;15.10;99.90
59098;DHT22;44883;52.760;6.610;2022-10-17T16:36:22;15.10;99.90
59098;DHT22;44883;52.760;6.610;2022-10-17T16:38:48;15.10;99.90
59098;DHT22;44883;52.760;6.610;2022-10-17T16:41:22;15.10;99.90
59098;DHT22;44883;52.760;6.610;2022-10-17T16:43:55;15.00;99.90
59098;DHT22;44883;52.760;6.610;2022-10-17T16:46:22;15.00;99.90
59098;DHT22;44883;52.760;6.610;2022-10-17T16:48:47;14.90;99.90
59098;DHT22;44883;52.760;6.610;2022-10-17T16:51:13;14.90;99.90
59098;DHT22;44883;52.760;6.610;2022-10-17T16:53:39;14.80;99.90
59098;DHT22;44883;52.760;6.610;2022-10-17T16:56:08;14.80;99.90
59098;DHT22;44883;52.760;6.610;2022-10-17T16:58:34;14.80;99.90
59098;DHT22;44883;52.760;6.610;2022-10-17T17:01:00;14.70;99.90
59098;DHT22;44883;52.760;6.610;2022-10-17T17:03:26;14.70;99.90
59098;DHT22;44883;52.760;6.610;2022-10-17T17:05:51;14.70;99.90
59098;DHT22;44883;52.760;6.610;2022-10-17T17:08:17;14.70;99.90
59098;DHT22;44883;52.760;6.610;2022-10-17T17:10:46;14.60;99.90
59098;DHT22;44883;52.760;6.610;2022-10-17T17:13:13;14.60;99.90
59098;DHT22;44883;52.760;6.610;2022-10-17T17:15:39;14.60;99.90
59098;DHT22;44883;52.760;6.610;2022-10-17T17:18:04;14.70;99.90
59098;DHT22;44883;52.760;6.610;2022-10-17T17:20:30;14.70;99.90
59098;DHT22;44883;52.760;6.610;2022-10-17T17:22:56;14.60;99.90
59098;DHT22;44883;52.760;6.610;2022-10-17T17:25:22;14.70;99.90